< < Back
Terminal Aerodrome Forecast


Current Version              Previous Versions:   1  2  3  4  5  6  7  8  9  

Terminal Aerodrome Forecast

180
FTUS42 KCHS 281132
TAFSAV
TAF
KSAV 281132Z 2812/2912 VRB03KT 1/4SM FG VV002
     FM281300 02004KT 2SM BR SCT002 BKN006
      TEMPO 2813/2814 P6SM NSW SCT010 BKN015
     FM281400 03005KT P6SM SCT025
     FM281800 10008KT P6SM SCT040
     FM290800 VRB03KT 4SM BR FEW004=



Latest METAR

979
SAUS80 KWBC 281300
MTRSAV
METAR KSAV 281253Z 35003KT 2SM R10/4500VP6000FT BR BKN003 BKN250 26/25
A2999 RMK AO2 SFC VIS 4 SLP156 VIS W 1 T02560250


USA.gov is the U.S. government's official web portal to all federal, state and local government web resources and services.